createdAt,value
2022-08-28T00:01:40.036Z,2.00
2022-08-28T00:04:12.549Z,2.15
2022-08-28T00:06:45.893Z,1.92
2022-08-28T00:09:18.899Z,2.10
2022-08-28T00:11:51.424Z,1.95
2022-08-28T00:14:24.912Z,1.70
2022-08-28T00:16:57.412Z,1.80
2022-08-28T00:19:29.994Z,2.20
2022-08-28T00:22:04.140Z,2.45
2022-08-28T00:24:36.842Z,1.90
2022-08-28T00:27:27.996Z,2.08
2022-08-28T00:30:00.491Z,2.28
2022-08-28T00:32:34.939Z,2.05
2022-08-28T00:35:07.872Z,2.58
2022-08-28T00:37:40.365Z,2.10
2022-08-28T00:40:18.426Z,2.33
2022-08-28T00:43:03.081Z,2.75
2022-08-28T00:45:39.884Z,1.83
2022-08-28T00:48:12.919Z,2.45
2022-08-28T00:51:04.147Z,2.63
2022-08-28T00:53:36.793Z,2.95
2022-08-28T00:56:13.297Z,3.08
2022-08-28T00:58:47.684Z,2.33
2022-08-28T01:01:20.158Z,2.10
2022-08-28T01:03:52.669Z,2.05
2022-08-28T01:06:25.140Z,2.50
2022-08-28T01:08:59.019Z,2.30
2022-08-28T01:11:32.976Z,2.60
2022-08-28T01:14:06.444Z,2.53
2022-08-28T01:16:40.149Z,2.70
2022-08-28T01:19:23.365Z,2.35
2022-08-28T01:22:12.861Z,2.78
2022-08-28T01:24:46.768Z,2.28
2022-08-28T01:27:20.111Z,2.42
2022-08-28T01:29:56.808Z,2.50
2022-08-28T01:32:36.426Z,2.28
2022-08-28T01:35:13.688Z,3.15
2022-08-28T01:37:46.465Z,2.72
2022-08-28T01:40:32.632Z,2.25
2022-08-28T01:43:19.542Z,2.90
2022-08-28T01:45:56.109Z,2.55
2022-08-28T01:48:30.891Z,2.28
2022-08-28T01:51:05.084Z,2.30
2022-08-28T01:53:38.492Z,2.22
2022-08-28T01:56:15.191Z,2.45
2022-08-28T01:58:50.483Z,2.22
2022-08-28T02:01:22.986Z,2.03
2022-08-28T02:03:56.049Z,2.33
2022-08-28T02:06:28.574Z,2.10
2022-08-28T02:09:01.261Z,2.28
2022-08-28T02:11:34.088Z,2.30
2022-08-28T02:14:06.575Z,2.67
2022-08-28T02:16:38.991Z,2.17
2022-08-28T02:19:12.106Z,2.25
2022-08-28T02:21:44.862Z,2.38
2022-08-28T02:24:18.134Z,2.53
2022-08-28T02:26:50.568Z,2.28
2022-08-28T02:29:23.493Z,2.75
2022-08-28T02:31:55.905Z,2.38
2022-08-28T02:34:28.392Z,2.70
2022-08-28T02:37:01.082Z,2.72
2022-08-28T02:39:33.522Z,2.28
2022-08-28T02:42:06.631Z,2.63
2022-08-28T02:44:39.301Z,3.05
2022-08-28T02:47:11.712Z,2.22
2022-08-28T02:49:44.814Z,2.03
2022-08-28T02:52:19.069Z,2.40
2022-08-28T02:54:51.526Z,2.70
2022-08-28T02:57:23.919Z,2.65
2022-08-28T02:59:56.551Z,2.20
2022-08-28T03:02:29.052Z,2.30
2022-08-28T03:05:01.508Z,2.47
2022-08-28T03:07:33.933Z,2.28
2022-08-28T03:10:07.728Z,2.47
2022-08-28T03:12:40.145Z,2.15
2022-08-28T03:15:12.608Z,2.35
2022-08-28T03:17:45.480Z,3.10
2022-08-28T03:20:20.595Z,2.53
2022-08-28T03:23:11.551Z,2.10
2022-08-28T03:25:44.724Z,2.60
2022-08-28T03:28:17.358Z,2.40
2022-08-28T03:30:50.834Z,2.38
2022-08-28T03:33:24.079Z,2.55
2022-08-28T03:35:56.579Z,2.35
2022-08-28T03:38:29.069Z,2.10
2022-08-28T03:41:01.751Z,2.38
2022-08-28T03:43:34.147Z,2.35
2022-08-28T03:46:07.815Z,2.42
2022-08-28T03:48:42.240Z,2.80
2022-08-28T03:51:25.493Z,2.17
2022-08-28T03:54:03.814Z,2.03
2022-08-28T03:56:36.233Z,2.28
2022-08-28T03:59:08.705Z,2.70
2022-08-28T04:01:41.235Z,2.10
2022-08-28T04:04:13.769Z,2.13
2022-08-28T04:06:46.508Z,2.92
2022-08-28T04:09:18.920Z,3.00
2022-08-28T04:11:52.709Z,2.20
2022-08-28T04:14:25.212Z,2.20
2022-08-28T04:17:01.301Z,2.75
2022-08-28T04:19:34.565Z,2.72
2022-08-28T04:22:08.195Z,2.35
2022-08-28T04:24:40.764Z,2.17
2022-08-28T04:27:14.962Z,2.28
2022-08-28T04:29:49.091Z,2.97
2022-08-28T04:32:22.468Z,2.33
2022-08-28T04:34:54.973Z,2.63
2022-08-28T04:37:27.853Z,2.70
2022-08-28T04:40:00.593Z,2.58
2022-08-28T04:42:33.036Z,3.00
2022-08-28T04:45:07.031Z,2.33
2022-08-28T04:47:39.546Z,2.85
2022-08-28T04:50:11.968Z,2.70
2022-08-28T04:52:44.449Z,2.03
2022-08-28T04:55:18.307Z,2.80
2022-08-28T04:58:06.303Z,2.70
2022-08-28T05:00:42.220Z,2.67
2022-08-28T05:03:16.745Z,2.75
2022-08-28T05:05:53.061Z,2.58
2022-08-28T05:08:27.740Z,2.53
2022-08-28T05:11:10.763Z,3.05
2022-08-28T05:13:43.259Z,2.20
2022-08-28T05:16:17.796Z,2.85
2022-08-28T05:18:50.315Z,2.70
2022-08-28T05:21:23.328Z,2.70
2022-08-28T05:23:57.721Z,3.13
2022-08-28T05:26:30.335Z,2.90
2022-08-28T05:29:03.722Z,2.95
2022-08-28T05:31:38.997Z,2.60
2022-08-28T05:34:11.810Z,2.17
2022-08-28T05:36:44.228Z,2.25
2022-08-28T05:39:17.113Z,2.80
2022-08-28T05:41:49.677Z,2.70
2022-08-28T05:44:22.124Z,2.70
2022-08-28T05:46:54.548Z,2.97
2022-08-28T05:49:28.143Z,3.47
2022-08-28T05:52:00.595Z,2.75
2022-08-28T05:54:34.017Z,3.05
2022-08-28T05:57:06.465Z,3.10
2022-08-28T05:59:38.908Z,2.97
2022-08-28T06:02:11.344Z,2.97
2022-08-28T06:04:43.788Z,3.13
2022-08-28T06:07:16.231Z,3.45
2022-08-28T06:09:48.824Z,3.20
2022-08-28T06:12:21.501Z,2.85
2022-08-28T06:14:54.245Z,3.17
2022-08-28T06:17:27.871Z,2.70
2022-08-28T06:20:00.285Z,2.83
2022-08-28T06:22:32.710Z,2.72
2022-08-28T06:25:08.102Z,2.22
2022-08-28T06:27:40.641Z,2.45
2022-08-28T06:30:13.247Z,2.70
2022-08-28T06:32:48.161Z,2.92
2022-08-28T06:35:20.621Z,2.53
2022-08-28T06:37:53.185Z,2.58
2022-08-28T06:40:25.812Z,2.50
2022-08-28T06:42:58.232Z,2.50
2022-08-28T06:45:31.217Z,2.83
2022-08-28T06:48:03.892Z,2.42
2022-08-28T06:50:45.467Z,2.65
2022-08-28T06:53:20.788Z,2.35
2022-08-28T06:56:26.920Z,2.65
2022-08-28T06:59:00.253Z,2.30
2022-08-28T07:01:35.410Z,2.53
2022-08-28T07:04:10.425Z,2.63
2022-08-28T07:06:46.898Z,2.08
2022-08-28T07:09:19.970Z,2.17
2022-08-28T07:11:53.001Z,2.20
2022-08-28T07:14:26.370Z,2.40
2022-08-28T07:16:59.384Z,2.47
2022-08-28T07:19:31.778Z,2.10
2022-08-28T07:22:04.769Z,2.88
2022-08-28T07:24:37.198Z,2.22
2022-08-28T07:27:09.847Z,1.77
2022-08-28T07:29:42.228Z,2.20
2022-08-28T07:32:15.782Z,1.98
2022-08-28T07:34:49.172Z,2.10
2022-08-28T07:37:23.222Z,2.28
2022-08-28T07:39:55.723Z,1.80
2022-08-28T07:42:46.968Z,1.83
2022-08-28T07:45:19.413Z,2.05
2022-08-28T07:47:51.825Z,2.08
2022-08-28T07:50:24.296Z,1.60
2022-08-28T07:52:57.655Z,1.77
2022-08-28T07:55:31.655Z,1.52
2022-08-28T07:58:04.047Z,1.30
2022-08-28T08:00:36.508Z,1.50
2022-08-28T08:03:09.137Z,1.23
2022-08-28T08:05:41.649Z,1.40
2022-08-28T08:08:14.352Z,1.20
2022-08-28T08:10:58.338Z,1.52
2022-08-28T08:13:32.787Z,1.35
2022-08-28T08:16:08.262Z,1.80
2022-08-28T08:21:16.464Z,1.13
2022-08-28T08:23:49.757Z,1.02
2022-08-28T08:26:25.080Z,1.05
2022-08-28T08:28:58.032Z,1.17
2022-08-28T08:31:32.737Z,0.90
2022-08-28T08:34:05.685Z,1.15
2022-08-28T08:36:39.000Z,0.93
2022-08-28T08:39:11.616Z,1.23
2022-08-28T08:41:51.089Z,0.95
2022-08-28T08:44:33.846Z,0.98
2022-08-28T08:47:22.612Z,0.88
2022-08-28T08:52:47.893Z,1.00
2022-08-28T08:55:25.094Z,0.90
2022-08-28T08:58:04.408Z,1.30
2022-08-28T09:00:52.232Z,1.33
2022-08-28T09:03:57.088Z,1.05
2022-08-28T09:06:47.395Z,1.35
2022-08-28T09:09:40.929Z,0.98
2022-08-28T09:12:17.728Z,1.20
2022-08-28T09:15:05.620Z,0.80
2022-08-28T09:17:57.389Z,1.00
2022-08-28T09:20:32.450Z,0.93
2022-08-28T09:23:12.551Z,1.40
2022-08-28T09:25:50.842Z,0.90
2022-08-28T09:28:28.902Z,0.95
2022-08-28T09:31:09.359Z,1.25
2022-08-28T09:33:48.073Z,1.40
2022-08-28T09:36:37.633Z,0.90
2022-08-28T09:39:17.862Z,0.90
2022-08-28T09:42:33.537Z,0.90
2022-08-28T09:45:21.248Z,1.20
2022-08-28T09:47:57.871Z,1.40
2022-08-28T09:50:38.731Z,0.85
2022-08-28T09:53:13.999Z,1.20
2022-08-28T09:58:39.499Z,1.10
2022-08-28T10:01:38.268Z,0.95
2022-08-28T10:04:51.649Z,1.08
2022-08-28T10:07:27.092Z,0.95
2022-08-28T10:10:09.942Z,1.05
2022-08-28T10:12:59.526Z,0.80
2022-08-28T10:15:42.439Z,1.27
2022-08-28T10:18:21.686Z,0.80
2022-08-28T10:21:00.995Z,0.75
2022-08-28T10:24:01.291Z,0.85
2022-08-28T10:26:55.397Z,0.82
2022-08-28T10:29:33.833Z,0.90
2022-08-28T10:32:44.017Z,0.90
2022-08-28T10:35:29.003Z,0.80
2022-08-28T10:38:25.029Z,0.80
2022-08-28T10:41:05.296Z,1.30
2022-08-28T10:43:50.135Z,1.20
2022-08-28T10:46:36.973Z,1.10
2022-08-28T10:49:38.099Z,0.93
2022-08-28T10:52:16.031Z,0.82
2022-08-28T10:54:56.961Z,0.93
2022-08-28T10:57:50.425Z,0.80
2022-08-28T11:00:26.295Z,0.90
2022-08-28T11:03:05.901Z,0.70
2022-08-28T11:05:53.604Z,0.90
2022-08-28T11:08:31.352Z,0.82
2022-08-28T11:11:07.143Z,0.80
2022-08-28T11:13:45.824Z,0.90
2022-08-28T11:16:22.240Z,1.05
2022-08-28T11:19:26.676Z,1.00
2022-08-28T11:22:14.269Z,0.98
2022-08-28T11:25:10.847Z,1.25
2022-08-28T11:28:18.135Z,0.90
2022-08-28T11:31:05.962Z,1.08
2022-08-28T11:33:52.794Z,1.00
2022-08-28T11:36:26.422Z,0.73
2022-08-28T11:38:58.863Z,0.90
2022-08-28T11:41:38.381Z,0.70
2022-08-28T11:44:11.077Z,0.88
2022-08-28T11:46:47.382Z,0.50
2022-08-28T11:49:31.724Z,0.93
2022-08-28T11:52:22.594Z,0.90
2022-08-28T11:55:13.325Z,0.80
2022-08-28T12:00:55.795Z,0.82
2022-08-28T12:03:38.819Z,0.90
2022-08-28T12:06:13.374Z,0.80
2022-08-28T12:08:48.773Z,0.70
2022-08-28T12:11:39.556Z,0.88
2022-08-28T12:14:13.105Z,0.80
2022-08-28T12:17:04.891Z,0.73
2022-08-28T12:19:57.247Z,0.80
2022-08-28T12:22:53.127Z,1.00
2022-08-28T12:25:37.656Z,1.08
2022-08-28T12:28:29.316Z,0.63
2022-08-28T12:31:01.707Z,0.80
2022-08-28T12:33:47.281Z,1.00
2022-08-28T12:36:26.578Z,0.88
2022-08-28T12:38:59.224Z,0.77
2022-08-28T12:41:33.077Z,0.70
2022-08-28T12:44:08.898Z,0.70
2022-08-28T12:46:43.713Z,0.70
2022-08-28T12:49:34.748Z,0.63
2022-08-28T12:52:16.740Z,0.52
2022-08-28T12:54:51.208Z,0.70
2022-08-28T12:57:25.346Z,0.77
2022-08-28T13:00:08.988Z,0.70
2022-08-28T13:02:42.396Z,0.68
2022-08-28T13:05:29.394Z,0.80
2022-08-28T13:08:08.362Z,0.65
2022-08-28T13:10:48.560Z,0.55
2022-08-28T13:13:27.328Z,0.50
2022-08-28T13:16:06.164Z,0.98
2022-08-28T13:18:49.722Z,0.70
2022-08-28T13:21:33.949Z,0.80
2022-08-28T13:24:22.383Z,0.55
2022-08-28T13:27:02.615Z,0.60
2022-08-28T13:29:36.888Z,0.65
2022-08-28T13:32:16.079Z,0.70
2022-08-28T13:35:09.763Z,0.57
2022-08-28T13:37:50.276Z,0.80
2022-08-28T13:43:21.252Z,0.90
2022-08-28T13:45:54.182Z,0.70
2022-08-28T13:48:27.661Z,0.77
2022-08-28T13:51:10.553Z,0.50
2022-08-28T13:53:43.723Z,1.00
2022-08-28T13:56:16.305Z,0.70
2022-08-28T13:58:57.787Z,0.70
2022-08-28T14:01:49.603Z,0.80
2022-08-28T14:04:22.431Z,0.70
2022-08-28T14:06:54.828Z,0.80
2022-08-28T14:09:27.272Z,0.70
2022-08-28T14:12:00.087Z,0.82
2022-08-28T14:14:32.552Z,1.08
2022-08-28T14:17:06.562Z,0.70
2022-08-28T14:19:39.362Z,0.65
2022-08-28T14:22:11.759Z,0.70
2022-08-28T14:24:44.216Z,0.73
2022-08-28T14:27:16.815Z,0.88
2022-08-28T14:29:49.316Z,0.80
2022-08-28T14:32:21.987Z,0.80
2022-08-28T14:34:54.641Z,0.52
2022-08-28T14:37:28.629Z,0.80
2022-08-28T14:40:01.630Z,0.90
2022-08-28T14:42:34.312Z,0.75
2022-08-28T14:45:06.918Z,0.70
2022-08-28T14:47:39.404Z,1.38
2022-08-28T14:50:11.950Z,0.80
2022-08-28T14:52:44.857Z,0.77
2022-08-28T14:55:21.354Z,0.90
2022-08-28T14:57:54.026Z,1.23
2022-08-28T15:00:26.490Z,0.88
2022-08-28T15:02:59.712Z,0.80
2022-08-28T15:05:33.844Z,0.75
2022-08-28T15:08:07.989Z,0.80
2022-08-28T15:10:42.860Z,0.68
2022-08-28T15:13:15.484Z,0.60
2022-08-28T15:15:48.208Z,0.98
2022-08-28T15:18:21.314Z,0.80
2022-08-28T15:20:53.839Z,0.60
2022-08-28T15:23:26.941Z,0.70
2022-08-28T15:25:59.725Z,0.70
2022-08-28T15:28:32.341Z,0.80
2022-08-28T15:31:05.166Z,0.82
2022-08-28T15:33:39.342Z,0.75
2022-08-28T15:36:14.674Z,1.02
2022-08-28T15:39:05.476Z,0.95
2022-08-28T15:41:38.470Z,0.93
2022-08-28T15:44:14.911Z,1.10
2022-08-28T15:46:54.771Z,0.80
2022-08-28T15:49:31.158Z,0.80
2022-08-28T15:52:05.352Z,0.82
2022-08-28T15:54:38.144Z,0.85
2022-08-28T15:57:10.574Z,1.63
2022-08-28T15:59:50.039Z,0.90
2022-08-28T16:02:24.815Z,1.00
2022-08-28T16:04:58.122Z,0.73
2022-08-28T16:07:30.568Z,0.80
2022-08-28T16:10:07.051Z,1.20
2022-08-28T16:12:40.092Z,1.10
2022-08-28T16:15:12.994Z,1.02
2022-08-28T16:17:45.417Z,0.77
2022-08-28T16:20:17.824Z,0.93
2022-08-28T16:22:51.665Z,0.55
2022-08-28T16:25:24.053Z,0.80
2022-08-28T16:27:56.553Z,1.75
2022-08-28T16:30:29.167Z,1.02
2022-08-28T16:33:03.797Z,0.90
2022-08-28T16:35:49.399Z,0.65
2022-08-28T16:38:28.010Z,1.00
2022-08-28T16:41:00.421Z,0.85
2022-08-28T16:43:32.828Z,0.85
2022-08-28T16:46:09.961Z,1.30
2022-08-28T16:48:44.064Z,1.35
2022-08-28T16:51:17.743Z,1.08
2022-08-28T16:53:50.159Z,1.05
2022-08-28T16:56:24.148Z,1.67
2022-08-28T16:58:57.726Z,1.40
2022-08-28T17:01:30.431Z,0.80
2022-08-28T17:04:03.417Z,0.77
2022-08-28T17:06:35.819Z,0.80
2022-08-28T17:09:08.260Z,0.80
2022-08-28T17:11:40.721Z,0.80
2022-08-28T17:14:13.190Z,0.93
2022-08-28T17:16:45.881Z,0.77
2022-08-28T17:19:19.223Z,1.25
2022-08-28T17:22:10.497Z,0.70
2022-08-28T17:24:42.940Z,1.15
2022-08-28T17:27:16.604Z,1.20
2022-08-28T17:29:55.229Z,0.85
2022-08-28T17:32:28.717Z,0.90
2022-08-28T17:35:01.808Z,0.90
2022-08-28T17:37:34.220Z,1.52
2022-08-28T17:40:12.871Z,0.93
2022-08-28T17:42:47.872Z,0.85
2022-08-28T17:45:20.764Z,0.80
2022-08-28T17:47:53.160Z,0.93
2022-08-28T17:50:25.944Z,1.15
2022-08-28T17:52:58.410Z,1.08
2022-08-28T17:55:30.872Z,0.95
2022-08-28T17:58:03.594Z,0.93
2022-08-28T18:00:36.623Z,0.90
2022-08-28T18:03:09.405Z,1.10
2022-08-28T18:05:41.833Z,1.20
2022-08-28T18:08:14.344Z,1.20
2022-08-28T18:10:47.179Z,1.40
2022-08-28T18:13:19.592Z,1.20
2022-08-28T18:15:56.849Z,0.88
2022-08-28T18:18:36.203Z,1.20
2022-08-28T18:21:10.728Z,0.93
2022-08-28T18:23:43.159Z,1.35
2022-08-28T18:26:17.449Z,1.40
2022-08-28T18:28:50.160Z,1.10
2022-08-28T18:31:23.213Z,1.20
2022-08-28T18:33:55.725Z,1.30
2022-08-28T18:36:28.294Z,1.00
2022-08-28T18:39:00.839Z,1.10
2022-08-28T18:41:43.628Z,1.00
2022-08-28T18:44:18.388Z,1.05
2022-08-28T18:46:53.821Z,1.10
2022-08-28T18:49:26.995Z,1.10
2022-08-28T18:51:59.427Z,0.90
2022-08-28T18:54:31.984Z,0.98
2022-08-28T18:57:05.684Z,1.15
2022-08-28T18:59:38.439Z,0.95
2022-08-28T19:02:10.992Z,1.15
2022-08-28T19:04:44.916Z,1.40
2022-08-28T19:07:17.378Z,0.90
2022-08-28T19:09:49.830Z,1.20
2022-08-28T19:12:22.321Z,0.95
2022-08-28T19:14:56.444Z,1.05
2022-08-28T19:17:28.981Z,1.10
2022-08-28T19:20:05.903Z,1.10
2022-08-28T19:22:38.731Z,1.20
2022-08-28T19:25:27.764Z,0.75
2022-08-28T19:28:01.958Z,1.17
2022-08-28T19:30:35.051Z,1.27
2022-08-28T19:33:07.488Z,1.10
2022-08-28T19:35:40.035Z,0.90
2022-08-28T19:38:12.627Z,0.85
2022-08-28T19:40:45.443Z,1.10
2022-08-28T19:43:18.089Z,1.10
2022-08-28T19:45:50.962Z,0.82
2022-08-28T19:48:23.711Z,0.90
2022-08-28T19:51:07.943Z,0.90
2022-08-28T19:53:57.872Z,0.85
2022-08-28T19:56:33.576Z,0.90
2022-08-28T19:59:07.393Z,0.90
2022-08-28T20:01:43.394Z,1.00
2022-08-28T20:04:17.630Z,1.45
2022-08-28T20:06:50.266Z,1.13
2022-08-28T20:09:23.227Z,0.98
2022-08-28T20:11:55.651Z,0.70
2022-08-28T20:14:28.068Z,0.95
2022-08-28T20:17:00.536Z,1.35
2022-08-28T20:19:33.351Z,0.85
2022-08-28T20:22:05.981Z,1.00
2022-08-28T20:24:39.341Z,1.20
2022-08-28T20:27:11.744Z,1.17
2022-08-28T20:29:44.151Z,1.10
2022-08-28T20:32:16.968Z,1.17
2022-08-28T20:34:49.419Z,1.00
2022-08-28T20:37:21.941Z,0.95
2022-08-28T20:39:58.409Z,0.98
2022-08-28T20:42:31.708Z,1.02
2022-08-28T20:45:04.709Z,0.90
2022-08-28T20:47:37.097Z,1.02
2022-08-28T20:50:10.311Z,1.27
2022-08-28T20:52:42.736Z,1.27
2022-08-28T20:55:15.274Z,1.10
2022-08-28T20:57:47.674Z,1.60
2022-08-28T21:00:20.140Z,1.45
2022-08-28T21:02:52.987Z,1.33
2022-08-28T21:05:25.775Z,1.20
2022-08-28T21:07:58.263Z,1.05
2022-08-28T21:10:30.677Z,1.20
2022-08-28T21:13:04.277Z,1.15
2022-08-28T21:15:37.696Z,1.30
2022-08-28T21:18:10.428Z,2.10
2022-08-28T21:20:44.648Z,1.20
2022-08-28T21:23:17.047Z,1.35
2022-08-28T21:25:50.281Z,1.27
2022-08-28T21:28:22.781Z,1.40
2022-08-28T21:30:55.234Z,1.23
2022-08-28T21:33:27.745Z,1.38
2022-08-28T21:36:00.297Z,1.30
2022-08-28T21:38:32.719Z,1.42
2022-08-28T21:41:12.325Z,1.38
2022-08-28T21:43:46.518Z,1.67
2022-08-28T21:46:19.025Z,1.02
2022-08-28T21:48:53.319Z,1.60
2022-08-28T21:51:26.168Z,1.30
2022-08-28T21:54:00.170Z,1.38
2022-08-28T21:56:32.668Z,1.60
2022-08-28T21:59:05.199Z,1.30
2022-08-28T22:01:37.895Z,1.30
2022-08-28T22:04:10.465Z,1.33
2022-08-28T22:06:42.928Z,1.27
2022-08-28T22:09:15.360Z,1.25
2022-08-28T22:11:47.888Z,1.33
2022-08-28T22:14:20.930Z,1.65
2022-08-28T22:16:53.404Z,1.23
2022-08-28T22:19:25.851Z,1.75
2022-08-28T22:22:17.068Z,1.10
2022-08-28T22:24:49.523Z,1.52
2022-08-28T22:27:22.470Z,1.45
2022-08-28T22:29:55.780Z,1.52
2022-08-28T22:32:28.306Z,1.48
2022-08-28T22:35:00.841Z,1.40
2022-08-28T22:37:33.816Z,1.77
2022-08-28T22:40:09.550Z,1.30
2022-08-28T22:42:46.086Z,1.52
2022-08-28T22:45:19.281Z,1.67
2022-08-28T22:47:52.848Z,1.63
2022-08-28T22:50:25.599Z,1.20
2022-08-28T22:52:58.495Z,1.30
2022-08-28T22:55:31.052Z,1.58
2022-08-28T22:58:04.248Z,1.45
2022-08-28T23:00:38.342Z,1.60
2022-08-28T23:03:10.806Z,1.60
2022-08-28T23:05:43.248Z,1.60
2022-08-28T23:08:15.915Z,1.50
2022-08-28T23:10:58.935Z,2.08
2022-08-28T23:13:32.985Z,2.08
2022-08-28T23:16:06.904Z,2.13
2022-08-28T23:19:04.292Z,1.92
2022-08-28T23:21:32.123Z,1.52
2022-08-28T23:24:05.793Z,1.98
2022-08-28T23:26:38.209Z,2.00
2022-08-28T23:29:11.692Z,2.03
2022-08-28T23:31:44.579Z,2.20
2022-08-28T23:34:17.059Z,1.67
2022-08-28T23:36:49.849Z,2.13
2022-08-28T23:39:22.903Z,2.40
2022-08-28T23:41:57.116Z,1.80
2022-08-28T23:44:29.576Z,2.13
2022-08-28T23:47:03.720Z,1.92
2022-08-28T23:49:41.633Z,2.10
2022-08-28T23:52:15.288Z,1.80
2022-08-28T23:54:47.776Z,1.80
2022-08-28T23:57:20.315Z,2.63
2022-08-28T23:59:52.775Z,1.98
